createdAt,value
2018-07-26T00:02:28.812Z,99.90
2018-07-26T00:05:03.573Z,99.90
2018-07-26T00:07:38.650Z,99.90
2018-07-26T00:10:13.380Z,99.90
2018-07-26T00:12:48.173Z,99.90
2018-07-26T00:15:23.988Z,99.90
2018-07-26T00:17:58.908Z,99.90
2018-07-26T00:20:33.750Z,99.90
2018-07-26T00:23:09.501Z,99.90
2018-07-26T00:25:44.222Z,99.90
2018-07-26T00:28:18.960Z,99.90
2018-07-26T00:30:53.688Z,99.90
2018-07-26T00:33:29.459Z,99.90
2018-07-26T00:36:05.240Z,99.90
2018-07-26T00:38:41.049Z,99.90
2018-07-26T00:41:15.793Z,99.90
2018-07-26T00:43:50.512Z,99.90
2018-07-26T00:46:25.284Z,99.90
2018-07-26T00:49:01.064Z,99.90
2018-07-26T00:51:35.889Z,99.90
2018-07-26T00:54:10.645Z,99.90
2018-07-26T00:59:19.670Z,99.90
2018-07-26T01:04:28.673Z,99.90
2018-07-26T01:07:03.448Z,99.90
2018-07-26T01:09:38.290Z,99.90
2018-07-26T01:12:13.146Z,99.90
2018-07-26T01:14:48.931Z,99.90
2018-07-26T01:17:23.668Z,99.90
2018-07-26T01:19:58.445Z,99.90
2018-07-26T01:22:33.197Z,99.90
2018-07-26T01:25:09.060Z,99.90
2018-07-26T01:27:43.857Z,99.90
2018-07-26T01:30:18.679Z,99.90
2018-07-26T01:32:53.431Z,99.90
2018-07-26T01:35:28.191Z,99.90
2018-07-26T01:40:37.172Z,99.90
2018-07-26T01:43:52.872Z,99.90
2018-07-26T01:46:28.108Z,99.90
2018-07-26T01:49:02.824Z,99.90
2018-07-26T01:51:37.581Z,99.90
2018-07-26T01:54:12.360Z,99.90
2018-07-26T01:56:47.141Z,99.90
2018-07-26T01:59:21.865Z,99.90
2018-07-26T02:01:56.618Z,99.90
2018-07-26T02:04:31.349Z,99.90
2018-07-26T02:09:40.384Z,99.90
2018-07-26T02:12:16.329Z,99.90
2018-07-26T02:14:51.086Z,99.90
2018-07-26T02:17:25.838Z,99.90
2018-07-26T02:20:01.230Z,99.90
2018-07-26T02:22:36.005Z,99.90
2018-07-26T02:25:11.792Z,99.90
2018-07-26T02:27:47.525Z,99.90
2018-07-26T02:30:22.282Z,99.90
2018-07-26T02:35:31.259Z,99.90
2018-07-26T02:38:06.057Z,99.90
2018-07-26T02:43:14.997Z,99.90
2018-07-26T02:45:49.729Z,99.90
2018-07-26T02:48:24.505Z,99.90
2018-07-26T02:50:59.355Z,99.90
2018-07-26T02:53:34.060Z,99.90
2018-07-26T02:56:08.852Z,99.90
2018-07-26T02:58:43.629Z,99.90
2018-07-26T03:01:19.579Z,99.90
2018-07-26T03:03:54.302Z,99.90
2018-07-26T03:06:29.461Z,99.90
2018-07-26T03:11:38.601Z,99.90
2018-07-26T03:14:13.338Z,99.90
2018-07-26T03:16:48.125Z,99.90
2018-07-26T03:19:22.831Z,99.90
2018-07-26T03:21:57.637Z,99.90
2018-07-26T03:24:32.383Z,99.90
2018-07-26T03:27:11.444Z,99.90
2018-07-26T03:29:46.223Z,99.90
2018-07-26T03:32:21.022Z,99.90
2018-07-26T03:34:55.739Z,99.90
2018-07-26T03:37:31.540Z,99.90
2018-07-26T03:40:07.399Z,99.90
2018-07-26T03:42:42.168Z,99.90
2018-07-26T03:45:16.946Z,99.90
2018-07-26T03:47:51.751Z,99.90
2018-07-26T03:50:27.522Z,99.90
2018-07-26T03:53:02.278Z,99.90
2018-07-26T03:55:37.006Z,99.90
2018-07-26T03:58:12.156Z,99.90
2018-07-26T04:00:46.873Z,99.90
2018-07-26T04:03:21.632Z,99.90
2018-07-26T04:05:56.578Z,99.90
2018-07-26T04:08:31.277Z,99.90
2018-07-26T04:11:06.051Z,99.90
2018-07-26T04:13:40.783Z,99.90
2018-07-26T04:16:15.530Z,99.90
2018-07-26T04:18:51.293Z,99.90
2018-07-26T04:21:26.059Z,99.90
2018-07-26T04:24:00.900Z,99.90
2018-07-26T04:26:36.134Z,99.90
2018-07-26T04:29:10.895Z,99.90
2018-07-26T04:31:45.709Z,99.90
2018-07-26T04:36:54.842Z,99.90
2018-07-26T04:39:29.539Z,99.90
2018-07-26T04:42:04.321Z,99.90
2018-07-26T04:44:39.077Z,99.90
2018-07-26T04:49:49.109Z,99.90
2018-07-26T04:52:24.591Z,98.80
2018-07-26T04:54:59.016Z,94.10
2018-07-26T04:57:33.457Z,91.10
2018-07-26T05:00:08.253Z,90.10
2018-07-26T05:05:16.703Z,90.10
2018-07-26T05:07:51.156Z,90.60
2018-07-26T05:10:25.626Z,91.50
2018-07-26T05:13:00.044Z,92.30
2018-07-26T05:15:34.494Z,94.10
2018-07-26T05:18:09.744Z,96.20
2018-07-26T05:20:44.163Z,95.60
2018-07-26T05:23:18.677Z,94.60
2018-07-26T05:25:53.090Z,93.30
2018-07-26T05:28:28.611Z,92.40
2018-07-26T05:31:03.018Z,92.00
2018-07-26T05:33:37.504Z,90.80
2018-07-26T05:36:11.969Z,90.50
2018-07-26T05:38:46.424Z,85.30
2018-07-26T05:41:20.953Z,78.40
2018-07-26T05:43:55.433Z,71.40
2018-07-26T05:46:29.856Z,66.00
2018-07-26T05:49:04.360Z,61.50
2018-07-26T05:51:38.800Z,58.70
2018-07-26T05:54:13.290Z,56.50
2018-07-26T05:56:47.695Z,56.00
2018-07-26T05:59:23.211Z,55.80
2018-07-26T06:01:57.621Z,55.60
2018-07-26T06:04:32.072Z,54.90
2018-07-26T06:07:07.565Z,54.70
2018-07-26T06:09:43.151Z,54.90
2018-07-26T06:12:17.752Z,56.70
2018-07-26T06:14:52.249Z,57.80
2018-07-26T06:17:26.725Z,58.70
2018-07-26T06:20:01.211Z,58.10
2018-07-26T06:22:35.726Z,58.10
2018-07-26T06:25:10.520Z,56.70
2018-07-26T06:27:45.019Z,57.30
2018-07-26T06:30:21.556Z,57.20
2018-07-26T06:32:56.000Z,56.80
2018-07-26T06:35:30.416Z,55.70
2018-07-26T06:38:05.899Z,55.30
2018-07-26T06:40:40.343Z,54.00
2018-07-26T06:43:14.791Z,53.40
2018-07-26T06:45:49.252Z,52.80
2018-07-26T06:48:23.705Z,52.60
2018-07-26T06:50:58.206Z,51.70
2018-07-26T06:53:32.688Z,52.20
2018-07-26T06:56:07.116Z,51.50
2018-07-26T07:01:15.747Z,51.40
2018-07-26T07:06:24.163Z,51.40
2018-07-26T07:08:58.661Z,51.40
2018-07-26T07:11:33.119Z,51.60
2018-07-26T07:16:41.513Z,50.90
2018-07-26T07:19:15.984Z,49.00
2018-07-26T07:21:51.580Z,49.20
2018-07-26T07:24:26.020Z,49.10
2018-07-26T07:27:01.475Z,47.70
2018-07-26T07:29:35.986Z,48.30
2018-07-26T07:32:11.468Z,50.00
2018-07-26T07:34:46.279Z,50.20
2018-07-26T07:37:21.736Z,50.70
2018-07-26T07:39:56.203Z,50.30
2018-07-26T07:42:31.702Z,50.30
2018-07-26T07:45:07.034Z,49.90
2018-07-26T07:47:41.491Z,47.60
2018-07-26T07:50:16.001Z,47.20
2018-07-26T07:52:51.493Z,46.50
2018-07-26T07:57:59.901Z,45.40
2018-07-26T08:00:35.761Z,44.60
2018-07-26T08:03:10.210Z,43.80
2018-07-26T08:05:44.679Z,42.80
2018-07-26T08:08:19.110Z,43.90
2018-07-26T08:10:54.590Z,44.80
2018-07-26T08:13:29.031Z,43.80
2018-07-26T08:16:03.484Z,43.10
2018-07-26T08:18:38.923Z,43.50
2018-07-26T08:21:13.403Z,42.60
2018-07-26T08:23:50.416Z,43.00
2018-07-26T08:26:24.845Z,43.30
2018-07-26T08:29:06.732Z,44.20
2018-07-26T08:31:41.177Z,44.00
2018-07-26T08:34:17.024Z,45.10
2018-07-26T08:36:52.456Z,44.90
2018-07-26T08:39:26.889Z,45.10
2018-07-26T08:42:01.361Z,45.20
2018-07-26T08:44:35.852Z,45.60
2018-07-26T08:47:10.279Z,46.30
2018-07-26T08:49:44.788Z,45.30
2018-07-26T08:54:55.388Z,46.40
2018-07-26T08:57:29.820Z,47.40
2018-07-26T09:00:04.413Z,48.00
2018-07-26T09:02:58.125Z,46.00
2018-07-26T09:05:49.023Z,45.30
2018-07-26T09:08:32.289Z,45.40
2018-07-26T09:11:21.365Z,43.70
2018-07-26T09:14:11.020Z,43.10
2018-07-26T09:16:56.717Z,43.80
2018-07-26T09:19:43.969Z,43.20
2018-07-26T09:25:34.801Z,42.60
2018-07-26T09:28:10.559Z,42.20
2018-07-26T09:30:44.988Z,43.20
2018-07-26T09:39:59.378Z,41.50
2018-07-26T09:42:34.899Z,41.50
2018-07-26T09:45:09.427Z,41.50
2018-07-26T09:47:44.955Z,41.40
2018-07-26T09:50:20.704Z,40.10
2018-07-26T09:52:55.148Z,40.20
2018-07-26T09:55:30.611Z,40.30
2018-07-26T09:58:05.044Z,41.20
2018-07-26T10:00:44.549Z,40.70
2018-07-26T10:03:19.111Z,41.30
2018-07-26T10:05:53.593Z,39.90
2018-07-26T10:08:28.003Z,40.50
2018-07-26T10:11:02.458Z,40.60
2018-07-26T10:13:36.913Z,41.10
2018-07-26T10:16:12.641Z,41.30
2018-07-26T10:18:47.291Z,41.60
2018-07-26T10:21:22.147Z,41.10
2018-07-26T10:23:56.604Z,42.20
2018-07-26T10:26:31.061Z,41.80
2018-07-26T10:29:05.463Z,43.00
2018-07-26T10:34:14.454Z,44.10
2018-07-26T10:36:50.004Z,44.20
2018-07-26T10:39:24.464Z,44.20
2018-07-26T10:47:08.075Z,45.30
2018-07-26T10:49:42.515Z,44.90
2018-07-26T10:52:17.595Z,44.90
2018-07-26T10:57:27.055Z,43.30
2018-07-26T11:00:01.511Z,43.30
2018-07-26T11:02:36.453Z,44.50
2018-07-26T11:05:30.043Z,44.10
2018-07-26T11:08:11.714Z,44.00
2018-07-26T11:10:48.083Z,44.90
2018-07-26T11:13:23.508Z,44.50
2018-07-26T11:15:58.060Z,44.50
2018-07-26T11:18:32.513Z,44.70
2018-07-26T11:21:08.046Z,45.00
2018-07-26T11:23:42.447Z,44.90
2018-07-26T11:26:18.080Z,45.20
2018-07-26T11:28:56.109Z,45.80
2018-07-26T11:31:30.611Z,45.80
2018-07-26T11:34:05.055Z,46.60
2018-07-26T11:39:13.507Z,46.60
2018-07-26T11:41:48.025Z,47.00
2018-07-26T11:44:22.556Z,47.10
2018-07-26T11:46:58.054Z,46.80
2018-07-26T11:49:32.513Z,46.40
2018-07-26T11:52:07.151Z,47.70
2018-07-26T11:54:41.569Z,47.70
2018-07-26T11:57:16.056Z,48.00
2018-07-26T11:59:50.705Z,47.90
2018-07-26T12:02:36.453Z,49.00
2018-07-26T12:07:44.880Z,49.90
2018-07-26T12:12:59.618Z,49.10
2018-07-26T12:15:34.086Z,49.60
2018-07-26T12:18:09.616Z,49.30
2018-07-26T12:23:24.604Z,50.30
2018-07-26T12:28:33.965Z,51.50
2018-07-26T12:31:08.671Z,51.30
2018-07-26T12:36:18.083Z,51.50
2018-07-26T12:38:54.225Z,51.60
2018-07-26T12:41:29.411Z,51.80
2018-07-26T12:44:04.094Z,50.80
2018-07-26T12:46:38.509Z,51.60
2018-07-26T12:49:13.977Z,52.50
2018-07-26T12:51:49.391Z,51.90
2018-07-26T12:54:23.876Z,52.20
2018-07-26T12:56:58.335Z,52.80
2018-07-26T12:59:32.795Z,52.10
2018-07-26T13:02:07.366Z,52.20
2018-07-26T13:04:42.991Z,52.20
2018-07-26T13:07:18.416Z,52.80
2018-07-26T13:10:09.823Z,53.20
2018-07-26T13:12:46.557Z,53.50
2018-07-26T13:15:21.085Z,52.90
2018-07-26T13:17:55.552Z,53.90
2018-07-26T13:23:04.166Z,54.00
2018-07-26T13:25:39.624Z,54.00
2018-07-26T13:28:15.128Z,54.30
2018-07-26T13:30:49.684Z,54.10
2018-07-26T13:33:24.084Z,54.10
2018-07-26T13:36:03.716Z,53.30
2018-07-26T13:38:38.804Z,53.90
2018-07-26T13:41:18.457Z,54.20
2018-07-26T13:43:52.929Z,53.90
2018-07-26T13:46:31.947Z,54.00
2018-07-26T13:51:48.123Z,54.20
2018-07-26T13:54:23.593Z,54.40
2018-07-26T13:57:11.633Z,54.10
2018-07-26T13:59:47.461Z,54.50
2018-07-26T14:02:25.097Z,54.80
2018-07-26T14:04:59.637Z,54.10
2018-07-26T14:07:52.257Z,54.00
2018-07-26T14:10:28.415Z,54.10
2018-07-26T14:13:03.236Z,53.80
2018-07-26T14:15:38.213Z,54.30
2018-07-26T14:18:12.864Z,53.90
2018-07-26T14:20:53.415Z,54.30
2018-07-26T14:23:36.334Z,53.60
2018-07-26T14:26:12.582Z,53.00
2018-07-26T14:28:47.748Z,53.20
2018-07-26T14:31:25.281Z,53.00
2018-07-26T14:34:01.392Z,53.90
2018-07-26T14:36:36.891Z,53.70
2018-07-26T14:39:12.127Z,53.90
2018-07-26T14:44:21.577Z,53.70
2018-07-26T14:47:18.090Z,53.70
2018-07-26T14:49:53.655Z,53.60
2018-07-26T14:52:28.110Z,54.00
2018-07-26T14:57:37.671Z,52.70
2018-07-26T15:00:12.212Z,52.40
2018-07-26T15:02:46.933Z,52.60
2018-07-26T15:05:21.439Z,52.90
2018-07-26T15:07:55.897Z,53.10
2018-07-26T15:10:30.516Z,53.30
2018-07-26T15:13:05.358Z,53.20
2018-07-26T15:15:39.823Z,54.20
2018-07-26T15:18:15.339Z,54.10
2018-07-26T15:20:49.780Z,54.20
2018-07-26T15:23:25.300Z,55.00
2018-07-26T15:26:00.720Z,54.20
2018-07-26T15:28:36.213Z,54.40
2018-07-26T15:31:10.741Z,54.50
2018-07-26T15:33:45.336Z,54.30
2018-07-26T15:38:53.759Z,54.50
2018-07-26T15:44:02.211Z,54.20
2018-07-26T15:46:36.618Z,54.50
2018-07-26T15:51:46.452Z,53.90
2018-07-26T15:54:21.950Z,54.00
2018-07-26T15:56:56.466Z,54.00
2018-07-26T15:59:30.929Z,53.10
2018-07-26T16:02:05.364Z,53.60
2018-07-26T16:04:39.838Z,53.40
2018-07-26T16:07:14.252Z,52.60
2018-07-26T16:09:48.719Z,52.80
2018-07-26T16:12:23.223Z,53.00
2018-07-26T16:17:31.894Z,53.30
2018-07-26T16:20:08.792Z,53.60
2018-07-26T16:22:44.241Z,52.90
2018-07-26T16:25:22.824Z,53.20
2018-07-26T16:30:31.249Z,53.50
2018-07-26T16:33:05.697Z,54.00
2018-07-26T16:35:40.182Z,53.60
2018-07-26T16:38:14.613Z,53.10
2018-07-26T16:43:23.015Z,52.70
2018-07-26T16:45:58.465Z,53.00
2018-07-26T16:48:32.880Z,53.30
2018-07-26T16:51:07.739Z,53.10
2018-07-26T16:53:42.191Z,53.30
2018-07-26T16:56:17.663Z,53.20
2018-07-26T16:58:52.392Z,53.20
2018-07-26T17:01:27.048Z,53.50
2018-07-26T17:06:35.675Z,54.00
2018-07-26T17:11:44.727Z,53.70
2018-07-26T17:14:19.200Z,54.20
2018-07-26T17:16:53.680Z,54.70
2018-07-26T17:19:28.167Z,54.60
2018-07-26T17:22:02.753Z,54.30
2018-07-26T17:24:37.236Z,54.30
2018-07-26T17:27:11.674Z,55.00
2018-07-26T17:29:46.191Z,55.00
2018-07-26T17:32:20.599Z,55.10
2018-07-26T17:34:55.056Z,55.40
2018-07-26T17:37:29.489Z,55.70
2018-07-26T17:40:04.000Z,56.30
2018-07-26T17:42:38.636Z,55.90
2018-07-26T17:45:13.147Z,55.90
2018-07-26T17:47:47.728Z,55.90
2018-07-26T17:50:23.271Z,56.50
2018-07-26T17:52:57.860Z,56.90
2018-07-26T17:55:32.327Z,57.10
2018-07-26T17:58:07.799Z,57.60
2018-07-26T18:00:42.236Z,57.90
2018-07-26T18:03:16.663Z,58.60
2018-07-26T18:05:51.206Z,58.90
2018-07-26T18:08:25.789Z,59.30
2018-07-26T18:11:00.271Z,59.80
2018-07-26T18:13:34.692Z,60.30
2018-07-26T18:16:09.472Z,60.60
2018-07-26T18:18:44.909Z,61.10
2018-07-26T18:21:19.608Z,61.80
2018-07-26T18:23:54.389Z,61.60
2018-07-26T18:29:04.499Z,62.30
2018-07-26T18:31:39.361Z,62.50
2018-07-26T18:34:14.221Z,61.30
2018-07-26T18:36:48.711Z,61.30
2018-07-26T18:39:23.418Z,60.30
2018-07-26T18:41:58.171Z,60.80
2018-07-26T18:44:33.933Z,60.50
2018-07-26T18:47:08.687Z,59.70
2018-07-26T18:49:43.170Z,59.10
2018-07-26T18:52:18.093Z,59.10
2018-07-26T18:54:52.908Z,59.00
2018-07-26T18:57:28.775Z,58.80
2018-07-26T19:00:03.585Z,58.60
2018-07-26T19:02:38.627Z,58.60
2018-07-26T19:05:13.478Z,59.00
2018-07-26T19:07:49.416Z,59.20
2018-07-26T19:10:25.229Z,58.90
2018-07-26T19:13:01.178Z,58.50
2018-07-26T19:15:36.003Z,58.70
2018-07-26T19:18:11.744Z,58.70
2018-07-26T19:20:46.504Z,58.80
2018-07-26T19:23:21.203Z,59.00
2018-07-26T19:25:56.056Z,59.10
2018-07-26T19:28:30.943Z,59.00
2018-07-26T19:31:05.850Z,60.80
2018-07-26T19:33:40.599Z,59.90
2018-07-26T19:38:49.842Z,61.00
2018-07-26T19:41:24.581Z,61.40
2018-07-26T19:43:59.447Z,62.10
2018-07-26T19:46:34.064Z,62.70
2018-07-26T19:49:08.800Z,63.10
2018-07-26T19:51:43.588Z,63.90
2018-07-26T19:54:18.403Z,64.90
2018-07-26T19:56:52.851Z,64.80
2018-07-26T19:59:28.813Z,65.00
2018-07-26T20:02:04.976Z,65.50
2018-07-26T20:04:40.728Z,65.90
2018-07-26T20:07:15.466Z,66.30
2018-07-26T20:09:50.184Z,66.80
2018-07-26T20:12:26.127Z,67.50
2018-07-26T20:15:00.877Z,68.60
2018-07-26T20:17:35.696Z,69.40
2018-07-26T20:20:11.906Z,70.60
2018-07-26T20:22:47.740Z,70.60
2018-07-26T20:25:22.513Z,70.70
2018-07-26T20:27:57.402Z,71.40
2018-07-26T20:30:32.282Z,72.40
2018-07-26T20:33:07.109Z,73.30
2018-07-26T20:35:41.881Z,74.20
2018-07-26T20:38:17.628Z,74.90
2018-07-26T20:40:53.737Z,75.50
2018-07-26T20:43:28.553Z,76.00
2018-07-26T20:46:03.265Z,76.50
2018-07-26T20:56:21.958Z,79.80
2018-07-26T20:58:57.737Z,81.00
2018-07-26T21:01:33.453Z,81.30
2018-07-26T21:04:08.276Z,82.70
2018-07-26T21:06:43.049Z,84.40
2018-07-26T21:09:17.705Z,86.10
2018-07-26T21:11:53.423Z,87.40
2018-07-26T21:14:28.110Z,89.40
2018-07-26T21:19:38.077Z,91.80
2018-07-26T21:24:49.110Z,93.40
2018-07-26T21:27:23.813Z,94.20
2018-07-26T21:29:58.516Z,95.10
2018-07-26T21:35:08.105Z,96.80
2018-07-26T21:37:42.861Z,97.50
2018-07-26T21:40:18.546Z,98.30
2018-07-26T21:42:53.319Z,99.30
2018-07-26T21:45:28.032Z,99.90
2018-07-26T21:48:02.810Z,99.90
2018-07-26T21:50:37.584Z,99.90
2018-07-26T21:53:12.683Z,99.90
2018-07-26T21:55:48.459Z,99.90
2018-07-26T21:58:23.215Z,99.90
2018-07-26T22:00:58.965Z,99.90
2018-07-26T22:03:33.728Z,99.90
2018-07-26T22:06:08.471Z,99.90
2018-07-26T22:08:43.253Z,99.90
2018-07-26T22:11:18.165Z,99.90
2018-07-26T22:13:52.942Z,99.90
2018-07-26T22:16:27.683Z,99.90
2018-07-26T22:21:37.786Z,99.90
2018-07-26T22:24:12.573Z,99.90
2018-07-26T22:29:21.547Z,99.90
2018-07-26T22:31:56.336Z,99.90
2018-07-26T22:34:31.096Z,99.90
2018-07-26T22:37:06.928Z,99.90
2018-07-26T22:39:41.657Z,99.90
2018-07-26T22:44:50.719Z,99.90
2018-07-26T22:47:25.448Z,99.90
2018-07-26T22:50:00.211Z,99.90
2018-07-26T22:52:35.175Z,99.90
2018-07-26T22:55:10.955Z,99.90
2018-07-26T22:57:45.672Z,99.90
2018-07-26T23:00:20.441Z,99.90
2018-07-26T23:02:55.573Z,99.90
2018-07-26T23:05:30.348Z,99.90
2018-07-26T23:10:40.447Z,99.90
2018-07-26T23:13:16.183Z,99.90
2018-07-26T23:15:52.274Z,99.90
2018-07-26T23:18:27.027Z,99.90
2018-07-26T23:23:36.769Z,99.90
2018-07-26T23:26:11.554Z,99.90
2018-07-26T23:28:47.355Z,99.90
2018-07-26T23:31:22.094Z,99.90
2018-07-26T23:33:57.865Z,99.90
2018-07-26T23:36:32.803Z,99.90
2018-07-26T23:39:10.083Z,99.90
2018-07-26T23:41:44.841Z,99.90
2018-07-26T23:44:19.595Z,99.90
2018-07-26T23:46:54.332Z,99.90
2018-07-26T23:49:29.104Z,99.90
2018-07-26T23:52:03.898Z,99.90
2018-07-26T23:57:13.909Z,99.90
